地図

経路データ

SID SEASON NUMBER BASIN SUBBASIN NAME ISO_TIME NATURE LAT LON WMO_WIND WMO_PRES WMO_AGENCY TRACK_TYPE DIST2LAND LANDFALL IFLAG USA_AGENCY USA_ATCF_ID USA_LAT USA_LON USA_RECORD USA_STATUS USA_WIND USA_PRES USA_SSHS USA_R34_NE USA_R34_SE USA_R34_SW USA_R34_NW USA_R50_NE USA_R50_SE USA_R50_SW USA_R50_NW USA_R64_NE USA_R64_SE USA_R64_SW USA_R64_NW USA_POCI USA_ROCI USA_RMW USA_EYE TOKYO_LAT TOKYO_LON TOKYO_GRADE TOKYO_WIND TOKYO_PRES TOKYO_R50_DIR TOKYO_R50_LONG TOKYO_R50_SHORT TOKYO_R30_DIR TOKYO_R30_LONG TOKYO_R30_SHORT TOKYO_LAND CMA_LAT CMA_LON CMA_CAT CMA_WIND CMA_PRES HKO_LAT HKO_LON HKO_CAT HKO_WIND HKO_PRES NEWDELHI_LAT NEWDELHI_LON NEWDELHI_GRADE NEWDELHI_WIND NEWDELHI_PRES NEWDELHI_CI NEWDELHI_DP NEWDELHI_POCI REUNION_LAT REUNION_LON REUNION_TYPE REUNION_WIND REUNION_PRES REUNION_TNUM REUNION_CI REUNION_RMW REUNION_R34_NE REUNION_R34_SE REUNION_R34_SW REUNION_R34_NW REUNION_R50_NE REUNION_R50_SE REUNION_R50_SW REUNION_R50_NW REUNION_R64_NE REUNION_R64_SE REUNION_R64_SW REUNION_R64_NW BOM_LAT BOM_LON BOM_TYPE BOM_WIND BOM_PRES BOM_TNUM BOM_CI BOM_RMW BOM_R34_NE BOM_R34_SE BOM_R34_SW BOM_R34_NW BOM_R50_NE BOM_R50_SE BOM_R50_SW BOM_R50_NW BOM_R64_NE BOM_R64_SE BOM_R64_SW BOM_R64_NW BOM_ROCI BOM_POCI BOM_EYE BOM_POS_METHOD BOM_PRES_METHOD NADI_LAT NADI_LON NADI_CAT NADI_WIND NADI_PRES WELLINGTON_LAT WELLINGTON_LON WELLINGTON_WIND WELLINGTON_PRES DS824_LAT DS824_LON DS824_STAGE DS824_WIND DS824_PRES TD9636_LAT TD9636_LON TD9636_STAGE TD9636_WIND TD9636_PRES TD9635_LAT TD9635_LON TD9635_WIND TD9635_PRES TD9635_ROCI NEUMANN_LAT NEUMANN_LON NEUMANN_CLASS NEUMANN_WIND NEUMANN_PRES MLC_LAT MLC_LON MLC_CLASS MLC_WIND MLC_PRES USA_GUST BOM_GUST BOM_GUST_PER REUNION_GUST REUNION_GUST_PER USA_SEAHGT USA_SEARAD_NE USA_SEARAD_SE USA_SEARAD_SW USA_SEARAD_NW STORM_SPEED STORM_DIR
1891070S11065 1891 8 SI MM NOT_NAMED 1891-03-11 06:00:00 NR -10.6000 65.0000 reunion spur-split 1319 1319 _____O________ -1 -10.6000 65.0000 99 9.90000 1 0
1891070S11065 1891 8 SI MM NOT_NAMED 1891-03-11 09:00:00 NR -10.6128 64.9772 spur-split 1319 1313 _____P________ -1 -10.6128 64.9772 99 1 245
1891070S11065 1891 8 SI MM NOT_NAMED 1891-03-11 12:00:00 NR -10.6292 64.9458 spur-split 1313 1304 _____P________ -1 -10.6292 64.9458 99 1 243
1891070S11065 1891 8 SI MM NOT_NAMED 1891-03-11 15:00:00 NR -10.6527 64.8974 spur-split 1304 1298 _____P________ -1 -10.6527 64.8974 99 1 244
1891070S11065 1891 8 SI MM NOT_NAMED 1891-03-11 18:00:00 NR -10.6868 64.8234 spur-split 1298 1291 _____P________ -1 -10.6868 64.8234 99 2 245
1891070S11065 1891 8 SI MM NOT_NAMED 1891-03-11 21:00:00 NR -10.7351 64.7152 spur-split 1291 1276 _____P________ -1 -10.7351 64.7152 99 3 246
1891070S11065 1891 8 SI MM NOT_NAMED 1891-03-12 00:00:00 NR -10.8011 64.5644 spur-split 1276 1254 _____P________ -1 -10.8011 64.5644 99 4 246
1891070S11065 1891 8 SI MM NOT_NAMED 1891-03-12 03:00:00 NR -10.8883 64.3622 spur-split 1254 1227 _____P________ -1 -10.8883 64.3622 99 5 246
1891070S11065 1891 8 SI MM NOT_NAMED 1891-03-12 06:00:00 NR -11.0000 64.1000 reunion spur-split 1227 1200 _____O________ -1 -11.0000 64.1000 99 9.90000 6 247
1891070S11065 1891 8 SI MM NOT_NAMED 1891-03-12 09:00:00 NR -11.1390 63.7717 spur-split 1200 1158 _____P________ -1 -11.1390 63.7717 99 8 247
1891070S11065 1891 8 SI MM NOT_NAMED 1891-03-12 12:00:00 NR -11.3047 63.3814 spur-split 1158 1116 _____P________ -1 -11.3047 63.3814 99 9 246
1891070S11065 1891 8 SI MM NOT_NAMED 1891-03-12 15:00:00 NR -11.4962 62.9356 spur-split 1111 1070 _____P________ -1 -11.4962 62.9356 99 10 246
1891070S11065 1891 8 SI MM NOT_NAMED 1891-03-12 18:00:00 NR -11.7122 62.4408 spur-split 1065 1021 _____P________ -1 -11.7122 62.4408 99 11 246
1891070S11065 1891 8 SI MM NOT_NAMED 1891-03-12 21:00:00 NR -11.9516 61.9035 spur-split 1011 968 _____P________ -1 -11.9516 61.9035 99 12 245
1891070S11065 1891 8 SI MM NOT_NAMED 1891-03-13 00:00:00 NR -12.2134 61.3300 spur-split 964 912 _____P________ -1 -12.2134 61.3300 99 13 245
1891070S11065 1891 8 SI MM NOT_NAMED 1891-03-13 03:00:00 NR -12.4965 60.7267 spur-split 908 856 _____P________ -1 -12.4965 60.7267 99 13 244
1891070S11065 1891 8 SI MM NOT_NAMED 1891-03-13 06:00:00 NR -12.8000 60.1000 reunion spur-split 856 814 _____O________ -1 -12.8000 60.1000 99 9.90000 14 247
1891070S11065 1891 8 SI MM NOT_NAMED 1891-03-13 09:00:00 NR -13.0439 59.4022 spur-split 814 768 _____P________ -1 -13.0439 59.4022 99 15 250
1891070S11065 1891 8 SI MM NOT_NAMED 1891-03-13 12:00:00 NR -13.3022 58.6629 spur-split 768 727 _____P________ -1 -13.3022 58.6629 99 16 250
1891070S11065 1891 8 SI MM NOT_NAMED 1891-03-13 15:00:00 NR -13.5844 57.9044 spur-split 727 694 _____P________ -1 -13.5844 57.9044 99 16 248
1891070S11065 1891 8 SI MM NOT_NAMED 1891-03-13 18:00:00 NR -13.9001 57.1488 spur-split 695 655 _____P________ -1 -13.9001 57.1488 99 16 245
1891070S11065 1891 8 SI MM NOT_NAMED 1891-03-13 21:00:00 NR -14.2591 56.4184 spur-split 642 573 _____P________ -1 -14.2591 56.4184 99 16 241
1891070S11065 1891 8 SI MM NOT_NAMED 1891-03-14 00:00:00 NR -14.6718 55.7353 spur-split 561 504 _____P________ -1 -14.6718 55.7353 99 15 235
1891070S11065 1891 8 SI MM NOT_NAMED 1891-03-14 03:00:00 NR -15.1485 55.1218 spur-split 494 440 _____P________ -1 -15.1485 55.1218 99 15 227
1891070S11065 1891 8 SI MM NOT_NAMED 1891-03-14 06:00:00 NR -15.7000 54.6000 reunion spur-split 440 408 _____O________ -1 -15.7000 54.6000 99 9.90000 16 216
1891070S11065 1891 8 SI MM NOT_NAMED 1891-03-14 09:00:00 NR -16.4274 54.1668 spur-split 411 399 _____P________ -1 -16.4274 54.1668 99 17 206
1891070S11065 1891 8 SI MM NOT_NAMED 1891-03-14 12:00:00 NR -17.2437 53.8121 spur-split 404 375 _____P________ -1 -17.2437 53.8121 99 18 200
1891070S11065 1891 8 SI MM NOT_NAMED 1891-03-14 15:00:00 NR -18.1186 53.5349 spur-split 375 306 _____P________ -1 -18.1186 53.5349 99 18 194
1891070S11065 1891 8 SI MM NOT_NAMED 1891-03-14 18:00:00 NR -19.0217 53.3347 spur-split 306 247 _____P________ -1 -19.0217 53.3347 99 18 190
1891070S11065 1891 8 SI MM NOT_NAMED 1891-03-14 21:00:00 NR -19.9222 53.2112 spur-split 247 212 _____P________ -1 -19.9222 53.2112 99 18 185
1891070S11065 1891 8 SI MM NOT_NAMED 1891-03-15 00:00:00 NR -20.7893 53.1643 spur-split 210 207 _____P________ -1 -20.7893 53.1643 99 17 181
1891070S11065 1891 8 SI MM NOT_NAMED 1891-03-15 03:00:00 NR -21.5922 53.1940 spur-split 214 214 _____P________ -1 -21.5922 53.1940 99 15 175
1891070S11065 1891 8 SI MM NOT_NAMED 1891-03-15 06:00:00 NR -22.3000 53.3000 reunion spur-split 234 234 _____O________ -1 -22.3000 53.3000 99 9.90000 13 169
1891070S11065 1891 8 SI MM NOT_NAMED 1891-03-15 09:00:00 NR -22.8177 53.4420 spur-split 257 250 _____P________ -1 -22.8177 53.4420 99 10 160
1891070S11065 1891 8 SI MM NOT_NAMED 1891-03-15 12:00:00 NR -23.2511 53.6705 spur-split 277 277 _____P________ -1 -23.2511 53.6705 99 9 149
1891070S11065 1891 8 SI MM NOT_NAMED 1891-03-15 15:00:00 NR -23.6132 53.9721 spur-split 289 289 _____P________ -1 -23.6132 53.9721 99 9 138
1891070S11065 1891 8 SI MM NOT_NAMED 1891-03-15 18:00:00 NR -23.9166 54.3334 spur-split 308 304 _____P________ -1 -23.9166 54.3334 99 9 129
1891070S11065 1891 8 SI MM NOT_NAMED 1891-03-15 21:00:00 NR -24.1742 54.7407 spur-split 326 321 _____P________ -1 -24.1742 54.7407 99 9 122
1891070S11065 1891 8 SI MM NOT_NAMED 1891-03-16 00:00:00 NR -24.3986 55.1801 spur-split 337 336 _____P________ -1 -24.3986 55.1801 99 9 118
1891070S11065 1891 8 SI MM NOT_NAMED 1891-03-16 03:00:00 NR -24.6029 55.6378 spur-split 357 357 _____P________ -1 -24.6029 55.6378 99 9 116
1891070S11065 1891 8 SI MM NOT_NAMED 1891-03-16 06:00:00 NR -24.8000 56.1000 reunion spur-split 383 383 _____O________ -1 -24.8000 56.1000 99 9.90000 9 120
1891070S11065 1891 8 SI MM NOT_NAMED 1891-03-16 09:00:00 NR -25.0575 56.5134 spur-split 423 423 _____P________ -1 -25.0575 56.5134 99 9 123
1891070S11065 1891 8 SI MM NOT_NAMED 1891-03-16 12:00:00 NR -25.2991 56.9422 spur-split 455 455 _____P________ -1 -25.2991 56.9422 99 9 121
1891070S11065 1891 8 SI MM NOT_NAMED 1891-03-16 15:00:00 NR -25.5263 57.3821 spur-split 493 493 _____P________ -1 -25.5263 57.3821 99 9 119
1891070S11065 1891 8 SI MM NOT_NAMED 1891-03-16 18:00:00 NR -25.7405 57.8290 spur-split 530 530 _____P________ -1 -25.7405 57.8290 99 9 117
1891070S11065 1891 8 SI MM NOT_NAMED 1891-03-16 21:00:00 NR -25.9434 58.2785 spur-split 573 573 _____P________ -1 -25.9434 58.2785 99 9 116
1891070S11065 1891 8 SI MM NOT_NAMED 1891-03-17 00:00:00 NR -26.1365 58.7264 spur-split 612 612 _____P________ -1 -26.1365 58.7264 99 9 115
1891070S11065 1891 8 SI MM NOT_NAMED 1891-03-17 03:00:00 NR -26.3215 59.1683 spur-split 657 657 _____P________ -1 -26.3215 59.1683 99 9 115
1891070S11065 1891 8 SI MM NOT_NAMED 1891-03-17 06:00:00 NR -26.5000 59.6000 reunion spur-split 697 697 _____O________ -1 -26.5000 59.6000 99 9.90000 8 116
1891070S11065 1891 8 SI MM NOT_NAMED 1891-03-17 09:00:00 NR -26.6876 60.0109 spur-split 731 731 _____P________ -1 -26.6876 60.0109 99 8 117
1891070S11065 1891 8 SI MM NOT_NAMED 1891-03-17 12:00:00 NR -26.8681 60.4135 spur-split 766 766 _____P________ -1 -26.8681 60.4135 99 8 116
1891070S11065 1891 8 SI MM NOT_NAMED 1891-03-17 15:00:00 NR -27.0415 60.8085 spur-split 791 791 _____P________ -1 -27.0415 60.8085 99 8 116
1891070S11065 1891 8 SI MM NOT_NAMED 1891-03-17 18:00:00 NR -27.2076 61.1969 spur-split 828 828 _____P________ -1 -27.2076 61.1969 99 8 115
1891070S11065 1891 8 SI MM NOT_NAMED 1891-03-17 21:00:00 NR -27.3666 61.5793 spur-split 866 866 _____P________ -1 -27.3666 61.5793 99 7 115
1891070S11065 1891 8 SI MM NOT_NAMED 1891-03-18 00:00:00 NR -27.5184 61.9568 spur-split 895 895 _____P________ -1 -27.5184 61.9568 99 7 114
1891070S11065 1891 8 SI MM NOT_NAMED 1891-03-18 03:00:00 NR -27.6629 62.3301 spur-split 929 929 _____P________ -1 -27.6629 62.3301 99 7 113
1891070S11065 1891 8 SI MM NOT_NAMED 1891-03-18 06:00:00 NR -27.8000 62.7000 reunion spur-split 960 960 _____O________ -1 -27.8000 62.7000 99 9.90000 7 112
1891070S11065 1891 8 SI MM NOT_NAMED 1891-03-18 09:00:00 NR -27.9447 63.1082 spur-split 991 991 _____P________ -1 -27.9447 63.1082 99 8 111
1891070S11065 1891 8 SI MM NOT_NAMED 1891-03-18 12:00:00 NR -28.0829 63.5163 spur-split 1032 1032 _____P________ -1 -28.0829 63.5163 99 8 111
1891070S11065 1891 8 SI MM NOT_NAMED 1891-03-18 15:00:00 NR -28.2130 63.9181 spur-split 1064 1064 _____P________ -1 -28.2130 63.9181 99 7 110
1891070S11065 1891 8 SI MM NOT_NAMED 1891-03-18 18:00:00 NR -28.3338 64.3069 spur-split 1097 1097 _____P________ -1 -28.3338 64.3069 99 7 109
1891070S11065 1891 8 SI MM NOT_NAMED 1891-03-18 21:00:00 NR -28.4441 64.6761 spur-split 1131 1131 _____P________ -1 -28.4441 64.6761 99 7 108
1891070S11065 1891 8 SI MM NOT_NAMED 1891-03-19 00:00:00 NR -28.5426 65.0191 spur-split 1158 1158 _____P________ -1 -28.5426 65.0191 99 6 108
1891070S11065 1891 8 SI MM NOT_NAMED 1891-03-19 03:00:00 NR -28.6283 65.3293 spur-split 1186 1186 _____P________ -1 -28.6283 65.3293 99 5 107
1891070S11065 1891 8 SI MM NOT_NAMED 1891-03-19 06:00:00 NR -28.7000 65.6000 reunion spur-split 1214 1214 _____O________ -1 -28.7000 65.6000 99 9.90000 5 106
1891070S11065 1891 8 SI MM NOT_NAMED 1891-03-19 09:00:00 NR -28.7572 65.8266 spur-split 1235 1235 _____P________ -1 -28.7572 65.8266 99 4 106
1891070S11065 1891 8 SI MM NOT_NAMED 1891-03-19 12:00:00 NR -28.8013 66.0126 spur-split 1249 1249 _____P________ -1 -28.8013 66.0126 99 3 105
1891070S11065 1891 8 SI MM NOT_NAMED 1891-03-19 15:00:00 NR -28.8344 66.1638 spur-split 1262 1262 _____P________ -1 -28.8344 66.1638 99 2 103
1891070S11065 1891 8 SI MM NOT_NAMED 1891-03-19 18:00:00 NR -28.8584 66.2860 spur-split 1277 1277 _____P________ -1 -28.8584 66.2860 99 2 102
1891070S11065 1891 8 SI MM NOT_NAMED 1891-03-19 21:00:00 NR -28.8752 66.3849 spur-split 1284 1284 _____P________ -1 -28.8752 66.3849 99 2 100
1891070S11065 1891 8 SI MM NOT_NAMED 1891-03-20 00:00:00 NR -28.8865 66.4663 spur-split 1291 1291 _____P________ -1 -28.8865 66.4663 99 1 98
1891070S11065 1891 8 SI MM NOT_NAMED 1891-03-20 03:00:00 NR -28.8941 66.5360 spur-split 1291 1291 _____P________ -1 -28.8941 66.5360 99 1 97
1891070S11065 1891 8 SI MM NOT_NAMED 1891-03-20 06:00:00 NR -28.9000 66.6000 reunion spur-split 1298 _____O________ -1 -28.9000 66.6000 99 9.90000 1 96

IBTrACS Databaseについて

本データベースは、米国NOAAが公開する1842年以降の世界の熱帯低気圧のベストトラックデータアーカイブInternational Best Track Archive for Climate Stewardship (IBTrACS)を、ウェブで閲覧しやすい形式に変換したものです。

最終更新日:2021-11-26